createdAt,value
2018-03-18T00:00:11.420Z,-2.90
2018-03-18T00:02:52.378Z,-2.90
2018-03-18T00:05:20.528Z,-2.90
2018-03-18T00:07:48.658Z,-3.00
2018-03-18T00:10:16.798Z,-3.00
2018-03-18T00:12:44.955Z,-3.00
2018-03-18T00:15:13.867Z,-3.00
2018-03-18T00:17:42.009Z,-3.00
2018-03-18T00:20:10.906Z,-3.00
2018-03-18T00:22:39.054Z,-3.10
2018-03-18T00:25:07.204Z,-3.00
2018-03-18T00:27:36.138Z,-3.20
2018-03-18T00:30:05.030Z,-3.30
2018-03-18T00:32:33.924Z,-3.30
2018-03-18T00:35:02.090Z,-3.20
2018-03-18T00:37:30.237Z,-3.30
2018-03-18T00:39:58.385Z,-3.40
2018-03-18T00:42:26.506Z,-3.40
2018-03-18T00:44:54.672Z,-3.40
2018-03-18T00:47:22.798Z,-3.30
2018-03-18T00:49:50.943Z,-3.30
2018-03-18T00:52:19.110Z,-3.30
2018-03-18T00:54:47.263Z,-3.30
2018-03-18T00:57:15.385Z,-3.30
2018-03-18T00:59:44.310Z,-3.30
2018-03-18T01:02:12.470Z,-3.30
2018-03-18T01:04:40.627Z,-3.20
2018-03-18T01:07:08.759Z,-3.20
2018-03-18T01:09:36.911Z,-3.20
2018-03-18T01:12:05.062Z,-3.30
2018-03-18T01:14:33.202Z,-3.30
2018-03-18T01:17:01.333Z,-3.20
2018-03-18T01:19:29.498Z,-3.20
2018-03-18T01:21:57.634Z,-3.30
2018-03-18T01:24:25.766Z,-3.40
2018-03-18T01:26:53.915Z,-3.40
2018-03-18T01:29:22.056Z,-3.30
2018-03-18T01:31:50.213Z,-3.40
2018-03-18T01:34:18.351Z,-3.40
2018-03-18T01:36:46.492Z,-3.40
2018-03-18T01:39:14.627Z,-3.40
2018-03-18T01:41:42.786Z,-3.40
2018-03-18T01:44:11.038Z,-3.50
2018-03-18T01:46:39.190Z,-3.50
2018-03-18T01:49:07.319Z,-3.60
2018-03-18T01:51:35.510Z,-3.60
2018-03-18T01:54:04.405Z,-3.50
2018-03-18T01:56:32.555Z,-3.50
2018-03-18T01:59:00.686Z,-3.50
2018-03-18T02:01:28.838Z,-3.60
2018-03-18T02:03:56.966Z,-3.70
2018-03-18T02:06:25.134Z,-3.70
2018-03-18T02:08:53.269Z,-3.60
2018-03-18T02:11:21.413Z,-3.50
2018-03-18T02:13:49.538Z,-3.50
2018-03-18T02:16:17.691Z,-3.50
2018-03-18T02:18:45.829Z,-3.50
2018-03-18T02:21:13.962Z,-3.50
2018-03-18T02:23:42.110Z,-3.60
2018-03-18T02:26:10.267Z,-3.60
2018-03-18T02:28:38.418Z,-3.60
2018-03-18T02:31:06.558Z,-3.60
2018-03-18T02:33:34.750Z,-3.60
2018-03-18T02:36:02.895Z,-3.70
2018-03-18T02:38:31.820Z,-3.60
2018-03-18T02:40:59.960Z,-3.60
2018-03-18T02:43:28.874Z,-3.60
2018-03-18T02:45:57.011Z,-3.70
2018-03-18T02:48:25.146Z,-3.70
2018-03-18T02:50:53.286Z,-3.60
2018-03-18T02:53:21.449Z,-3.60
2018-03-18T02:55:49.593Z,-3.60
2018-03-18T02:58:17.724Z,-3.70
2018-03-18T03:00:45.871Z,-3.60
2018-03-18T03:03:14.008Z,-3.80
2018-03-18T03:05:43.759Z,-3.80
2018-03-18T03:08:12.649Z,-3.70
2018-03-18T03:10:40.803Z,-3.70
2018-03-18T03:13:09.690Z,-3.70
2018-03-18T03:15:38.626Z,-3.70
2018-03-18T03:18:06.774Z,-3.70
2018-03-18T03:20:34.927Z,-3.60
2018-03-18T03:23:03.082Z,-3.60
2018-03-18T03:25:31.983Z,-3.60
2018-03-18T03:28:00.133Z,-3.60
2018-03-18T03:30:28.588Z,-3.60
2018-03-18T03:32:56.734Z,-3.70
2018-03-18T03:35:24.874Z,-3.70
2018-03-18T03:37:53.789Z,-3.80
2018-03-18T03:40:21.935Z,-3.80
2018-03-18T03:42:50.092Z,-3.70
2018-03-18T03:45:18.996Z,-3.60
2018-03-18T03:47:47.165Z,-3.70
2018-03-18T03:50:16.172Z,-3.60
2018-03-18T03:52:44.357Z,-3.70
2018-03-18T03:55:12.508Z,-3.60
2018-03-18T03:57:40.939Z,-3.70
2018-03-18T04:00:09.122Z,-3.70
2018-03-18T04:02:37.249Z,-3.80
2018-03-18T04:05:05.402Z,-3.70
2018-03-18T04:07:33.535Z,-4.00
2018-03-18T04:10:01.734Z,-3.90
2018-03-18T04:12:29.882Z,-3.90
2018-03-18T04:14:58.035Z,-3.80
2018-03-18T04:17:26.182Z,-3.80
2018-03-18T04:19:54.325Z,-3.80
2018-03-18T04:22:22.462Z,-3.90
2018-03-18T04:24:52.134Z,-3.90
2018-03-18T04:27:20.270Z,-3.90
2018-03-18T04:29:48.406Z,-3.90
2018-03-18T04:32:16.562Z,-3.80
2018-03-18T04:34:44.697Z,-3.90
2018-03-18T04:37:12.845Z,-3.90
2018-03-18T04:39:41.747Z,-4.00
2018-03-18T04:42:09.888Z,-4.00
2018-03-18T04:44:38.029Z,-4.00
2018-03-18T04:47:06.270Z,-4.20
2018-03-18T04:49:34.408Z,-4.10
2018-03-18T04:52:03.376Z,-4.00
2018-03-18T04:54:32.338Z,-4.10
2018-03-18T04:57:00.486Z,-4.10
2018-03-18T04:59:28.667Z,-4.00
2018-03-18T05:01:56.910Z,-4.00
2018-03-18T05:04:25.910Z,-3.90
2018-03-18T05:06:54.831Z,-3.90
2018-03-18T05:09:22.987Z,-4.00
2018-03-18T05:11:51.127Z,-4.00
2018-03-18T05:14:19.275Z,-4.00
2018-03-18T05:16:47.406Z,-4.10
2018-03-18T05:19:15.553Z,-4.10
2018-03-18T05:21:44.453Z,-4.10
2018-03-18T05:24:12.619Z,-4.10
2018-03-18T05:26:40.755Z,-4.10
2018-03-18T05:29:08.906Z,-4.10
2018-03-18T05:31:37.106Z,-4.10
2018-03-18T05:34:05.254Z,-4.10
2018-03-18T05:36:33.486Z,-4.10
2018-03-18T05:39:01.649Z,-4.20
2018-03-18T05:41:29.794Z,-4.20
2018-03-18T05:43:57.965Z,-4.10
2018-03-18T05:46:26.110Z,-4.10
2018-03-18T05:48:54.257Z,-4.00
2018-03-18T05:51:22.402Z,-4.00
2018-03-18T05:53:50.540Z,-4.00
2018-03-18T05:56:20.213Z,-4.00
2018-03-18T05:58:48.334Z,-4.00
2018-03-18T06:01:16.763Z,-4.10
2018-03-18T06:03:45.024Z,-4.00
2018-03-18T06:06:13.174Z,-4.00
2018-03-18T06:08:41.345Z,-4.00
2018-03-18T06:11:09.503Z,-4.10
2018-03-18T06:13:38.404Z,-4.00
2018-03-18T06:16:06.614Z,-4.00
2018-03-18T06:18:34.832Z,-4.00
2018-03-18T06:21:02.990Z,-4.10
2018-03-18T06:23:31.161Z,-4.00
2018-03-18T06:25:59.295Z,-3.90
2018-03-18T06:28:27.468Z,-3.80
2018-03-18T06:30:55.587Z,-3.70
2018-03-18T06:33:24.519Z,-3.90
2018-03-18T06:35:52.644Z,-3.90
2018-03-18T06:38:20.790Z,-3.80
2018-03-18T06:40:49.018Z,-3.70
2018-03-18T06:43:17.181Z,-3.60
2018-03-18T06:45:45.330Z,-3.60
2018-03-18T06:48:13.500Z,-3.60
2018-03-18T06:50:42.397Z,-3.50
2018-03-18T06:53:11.308Z,-3.70
2018-03-18T06:55:39.451Z,-3.70
2018-03-18T06:58:07.578Z,-3.70
2018-03-18T07:00:35.729Z,-3.60
2018-03-18T07:03:04.202Z,-3.60
2018-03-18T07:05:33.118Z,-3.50
2018-03-18T07:08:01.279Z,-3.50
2018-03-18T07:10:29.454Z,-3.50
2018-03-18T07:12:57.580Z,-3.40
2018-03-18T07:15:26.495Z,-3.20
2018-03-18T07:17:54.626Z,-3.20
2018-03-18T07:20:22.803Z,-3.30
2018-03-18T07:22:50.947Z,-3.30
2018-03-18T07:25:19.077Z,-3.30
2018-03-18T07:27:47.230Z,-3.20
2018-03-18T07:30:16.244Z,-3.20
2018-03-18T07:32:44.382Z,-3.30
2018-03-18T07:35:12.539Z,-3.30
2018-03-18T07:37:40.675Z,-3.20
2018-03-18T07:40:08.805Z,-3.20
2018-03-18T07:42:37.722Z,-3.20
2018-03-18T07:45:05.853Z,-3.20
2018-03-18T07:47:34.482Z,-3.30
2018-03-18T07:50:02.849Z,-3.10
2018-03-18T07:52:31.035Z,-3.00
2018-03-18T07:54:59.202Z,-3.00
2018-03-18T07:57:27.322Z,-2.90
2018-03-18T07:59:55.523Z,-2.90
2018-03-18T08:02:24.407Z,-2.80
2018-03-18T08:04:52.582Z,-2.80
2018-03-18T08:07:21.482Z,-2.80
2018-03-18T08:09:50.362Z,-2.80
2018-03-18T08:12:18.494Z,-2.80
2018-03-18T08:14:48.162Z,-2.50
2018-03-18T08:17:16.286Z,-2.50
2018-03-18T08:19:44.434Z,-2.40
2018-03-18T08:22:12.658Z,-2.60
2018-03-18T08:24:40.818Z,-2.80
2018-03-18T08:27:08.975Z,-3.20
2018-03-18T08:29:37.903Z,-3.40
2018-03-18T08:32:06.044Z,-3.40
2018-03-18T08:34:34.256Z,-3.50
2018-03-18T08:37:02.390Z,-3.30
2018-03-18T08:39:31.326Z,-3.00
2018-03-18T08:41:59.466Z,-3.00
2018-03-18T08:44:27.602Z,-3.00
2018-03-18T08:46:56.537Z,-2.60
2018-03-18T08:49:24.725Z,-2.60
2018-03-18T08:51:52.873Z,-2.80
2018-03-18T08:54:21.054Z,-2.70
2018-03-18T08:56:49.187Z,-2.50
2018-03-18T08:59:18.110Z,-2.90
2018-03-18T09:01:46.258Z,-2.90
2018-03-18T09:04:15.152Z,-2.90
2018-03-18T09:06:43.396Z,-2.90
2018-03-18T09:09:11.574Z,-2.90
2018-03-18T09:11:40.587Z,-2.40
2018-03-18T09:14:08.755Z,-2.40
2018-03-18T09:16:37.662Z,-2.40
2018-03-18T09:19:05.831Z,-2.40
2018-03-18T09:21:34.000Z,-2.60
2018-03-18T09:24:02.145Z,-2.60
2018-03-18T09:26:31.098Z,-2.70
2018-03-18T09:28:59.322Z,-2.70
2018-03-18T09:31:28.322Z,-2.40
2018-03-18T09:33:56.526Z,-2.50
2018-03-18T09:36:24.723Z,-2.10
2018-03-18T09:38:52.984Z,-2.10
2018-03-18T09:41:21.301Z,-2.00
2018-03-18T09:43:49.439Z,-2.00
2018-03-18T09:46:17.586Z,-1.80
2018-03-18T09:51:20.191Z,-2.30
2018-03-18T09:53:48.345Z,-2.30
2018-03-18T09:56:16.551Z,-2.20
2018-03-18T09:58:44.750Z,-2.40
2018-03-18T10:01:13.080Z,-2.50
2018-03-18T10:03:41.290Z,-2.40
2018-03-18T10:06:10.267Z,-2.60
2018-03-18T10:08:39.222Z,-2.30
2018-03-18T10:11:07.375Z,-2.30
2018-03-18T10:13:35.519Z,-2.10
2018-03-18T10:16:04.441Z,-2.30
2018-03-18T10:18:32.702Z,-2.30
2018-03-18T10:21:00.979Z,-2.30
2018-03-18T10:23:29.107Z,-2.30
2018-03-18T10:25:57.254Z,-2.20
2018-03-18T10:28:25.382Z,-2.00
2018-03-18T10:30:53.549Z,-1.80
2018-03-18T10:33:22.589Z,-1.60
2018-03-18T10:35:50.742Z,-1.70
2018-03-18T10:38:18.898Z,-1.90
2018-03-18T10:40:47.054Z,-1.50
2018-03-18T10:43:15.201Z,-1.30
2018-03-18T10:45:43.341Z,-1.20
2018-03-18T10:48:11.492Z,-1.20
2018-03-18T10:50:39.631Z,-1.30
2018-03-18T10:53:07.787Z,-0.80
2018-03-18T10:55:35.951Z,-0.90
2018-03-18T10:58:04.103Z,-0.90
2018-03-18T11:00:37.845Z,-1.10
2018-03-18T11:03:06.004Z,-0.90
2018-03-18T11:05:34.137Z,-0.70
2018-03-18T11:08:02.289Z,-0.80
2018-03-18T11:10:30.425Z,-0.70
2018-03-18T11:12:59.343Z,-1.00
2018-03-18T11:15:27.477Z,-1.00
2018-03-18T11:20:30.171Z,-1.00
2018-03-18T11:22:58.318Z,-1.20
2018-03-18T11:25:26.492Z,-0.90
2018-03-18T11:27:55.491Z,-0.90
2018-03-18T11:30:23.633Z,-0.70
2018-03-18T11:32:51.796Z,-0.50
2018-03-18T11:35:19.971Z,-1.30
2018-03-18T11:37:48.126Z,-1.30
2018-03-18T11:40:16.257Z,-1.00
2018-03-18T11:42:44.405Z,-0.90
2018-03-18T11:45:12.526Z,-0.80
2018-03-18T11:47:41.437Z,-1.20
2018-03-18T11:50:09.576Z,-1.20
2018-03-18T11:52:38.494Z,-0.40
2018-03-18T11:55:06.643Z,-0.50
2018-03-18T11:57:35.548Z,-0.50
2018-03-18T12:00:03.699Z,-0.50
2018-03-18T12:02:31.834Z,-0.30
2018-03-18T12:04:59.995Z,-0.60
2018-03-18T12:07:28.126Z,-1.00
2018-03-18T12:09:56.278Z,-0.90
2018-03-18T12:12:25.183Z,-1.00
2018-03-18T12:14:54.118Z,-1.10
2018-03-18T12:17:22.382Z,-1.20
2018-03-18T12:19:50.572Z,-1.40
2018-03-18T12:22:18.708Z,-1.40
2018-03-18T12:24:46.920Z,-1.10
2018-03-18T12:27:15.090Z,-1.30
2018-03-18T12:29:43.230Z,-1.00
2018-03-18T12:32:11.371Z,-0.90
2018-03-18T12:34:40.285Z,-0.60
2018-03-18T12:37:08.416Z,-0.60
2018-03-18T12:39:48.292Z,-0.10
2018-03-18T12:55:46.170Z,0.30
2018-03-18T12:58:14.295Z,0.40
2018-03-18T13:00:43.202Z,1.30
2018-03-18T13:03:11.349Z,1.30
2018-03-18T13:05:40.306Z,1.80
2018-03-18T13:08:08.437Z,1.80
2018-03-18T13:10:36.568Z,1.60
2018-03-18T13:13:04.714Z,0.90
2018-03-18T13:15:32.854Z,0.50
2018-03-18T13:18:00.994Z,0.70
2018-03-18T13:20:29.886Z,0.90
2018-03-18T13:22:58.785Z,0.70
2018-03-18T13:25:27.680Z,0.30
2018-03-18T13:27:55.821Z,0.30
2018-03-18T13:30:25.448Z,0.70
2018-03-18T13:32:54.066Z,0.60
2018-03-18T13:35:22.270Z,1.00
2018-03-18T13:37:50.397Z,0.50
2018-03-18T13:40:18.534Z,-0.10
2018-03-18T13:42:47.440Z,0.00
2018-03-18T13:45:16.445Z,-0.20
2018-03-18T13:47:44.579Z,-0.30
2018-03-18T13:50:12.722Z,-0.30
2018-03-18T13:52:40.860Z,-0.40
2018-03-18T13:55:09.035Z,-0.40
2018-03-18T13:57:37.166Z,-0.90
2018-03-18T14:00:05.390Z,-1.20
2018-03-18T14:02:33.531Z,-1.20
2018-03-18T14:05:01.680Z,-1.00
2018-03-18T14:07:29.985Z,-0.80
2018-03-18T14:09:58.194Z,-1.00
2018-03-18T14:15:00.950Z,-1.00
2018-03-18T14:17:29.084Z,-1.10
2018-03-18T14:19:57.230Z,-1.10
2018-03-18T14:22:25.366Z,-0.90
2018-03-18T14:24:53.512Z,-0.90
2018-03-18T14:27:22.408Z,-1.40
2018-03-18T14:29:51.327Z,-1.20
2018-03-18T14:32:19.474Z,-1.20
2018-03-18T14:34:48.398Z,-1.40
2018-03-18T14:37:16.550Z,-1.40
2018-03-18T14:39:44.679Z,-1.50
2018-03-18T14:42:12.830Z,-1.50
2018-03-18T14:44:40.946Z,-1.60
2018-03-18T14:47:09.870Z,-1.60
2018-03-18T14:49:37.993Z,-1.60
2018-03-18T14:52:06.922Z,-1.70
2018-03-18T14:54:35.062Z,-1.70
2018-03-18T14:57:03.969Z,-1.70
2018-03-18T14:59:32.114Z,-1.70
2018-03-18T15:02:01.025Z,-1.70
2018-03-18T15:04:29.510Z,-1.70
2018-03-18T15:06:57.652Z,-1.70
2018-03-18T15:09:25.791Z,-1.70
2018-03-18T15:11:53.945Z,-1.60
2018-03-18T15:14:22.073Z,-1.70
2018-03-18T15:16:50.996Z,-1.80
2018-03-18T15:19:19.130Z,-1.90
2018-03-18T15:21:48.052Z,-2.00
2018-03-18T15:24:16.203Z,-2.00
2018-03-18T15:26:45.114Z,-2.20
2018-03-18T15:29:13.264Z,-2.20
2018-03-18T15:31:42.292Z,-2.00
2018-03-18T15:34:10.435Z,-2.00
2018-03-18T15:36:39.335Z,-2.10
2018-03-18T15:39:07.816Z,-2.10
2018-03-18T15:41:35.952Z,-2.10
2018-03-18T15:44:04.091Z,-2.10
2018-03-18T15:46:32.232Z,-2.10
2018-03-18T15:49:00.614Z,-2.30
2018-03-18T15:51:28.746Z,-2.20
2018-03-18T15:53:56.915Z,-2.20
2018-03-18T15:56:25.843Z,-2.10
2018-03-18T15:58:54.000Z,-2.10
2018-03-18T16:01:22.181Z,-2.00
2018-03-18T16:03:50.331Z,-2.00
2018-03-18T16:06:19.225Z,-1.90
2018-03-18T16:08:48.161Z,-1.90
2018-03-18T16:11:16.319Z,-1.90
2018-03-18T16:13:44.486Z,-1.80
2018-03-18T16:16:12.638Z,-1.90
2018-03-18T16:18:40.778Z,-1.90
2018-03-18T16:21:09.113Z,-1.90
2018-03-18T16:23:37.256Z,-1.90
2018-03-18T16:26:06.162Z,-1.90
2018-03-18T16:28:34.366Z,-2.00
2018-03-18T16:31:19.990Z,-1.90
2018-03-18T16:33:49.597Z,-1.80
2018-03-18T16:36:17.751Z,-1.80
2018-03-18T16:38:46.661Z,-1.80
2018-03-18T16:41:14.811Z,-1.80
2018-03-18T16:43:42.979Z,-1.80
2018-03-18T16:46:11.145Z,-1.80
2018-03-18T16:48:39.279Z,-1.80
2018-03-18T16:51:07.430Z,-1.90
2018-03-18T16:53:35.609Z,-1.90
2018-03-18T16:56:03.771Z,-1.90
2018-03-18T16:58:31.914Z,-1.90
2018-03-18T17:01:00.067Z,-2.00
2018-03-18T17:03:28.211Z,-2.00
2018-03-18T17:05:56.358Z,-2.00
2018-03-18T17:08:24.499Z,-2.00
2018-03-18T17:10:52.661Z,-2.10
2018-03-18T17:13:20.803Z,-2.00
2018-03-18T17:15:48.932Z,-2.00
2018-03-18T17:18:17.850Z,-2.10
2018-03-18T17:20:46.068Z,-2.10
2018-03-18T17:23:14.231Z,-2.10
2018-03-18T17:25:42.366Z,-2.10
2018-03-18T17:28:10.520Z,-2.10
2018-03-18T17:30:38.646Z,-2.10
2018-03-18T17:33:06.794Z,-2.20
2018-03-18T17:35:34.934Z,-2.20
2018-03-18T17:38:03.078Z,-2.10
2018-03-18T17:40:31.983Z,-2.10
2018-03-18T17:43:00.943Z,-2.10
2018-03-18T17:45:40.714Z,-2.20
2018-03-18T17:48:21.354Z,-2.20
2018-03-18T17:51:01.157Z,-2.20
2018-03-18T17:53:41.043Z,-2.10
2018-03-18T17:56:20.856Z,-2.20
2018-03-18T17:58:49.106Z,-2.20
2018-03-18T18:01:17.236Z,-2.20
2018-03-18T18:03:45.390Z,-2.30
2018-03-18T18:06:13.524Z,-2.30
2018-03-18T18:08:41.670Z,-2.30
2018-03-18T18:11:10.570Z,-2.40
2018-03-18T18:13:38.726Z,-2.40
2018-03-18T18:16:07.636Z,-2.50
2018-03-18T18:18:35.909Z,-2.50
2018-03-18T18:21:04.114Z,-2.50
2018-03-18T18:23:32.242Z,-2.50
2018-03-18T18:26:00.399Z,-2.50
2018-03-18T18:28:28.536Z,-2.50
2018-03-18T18:30:56.732Z,-2.50
2018-03-18T18:33:26.403Z,-2.50
2018-03-18T18:35:54.550Z,-2.50
2018-03-18T18:38:22.684Z,-2.50
2018-03-18T18:40:51.627Z,-2.60
2018-03-18T18:43:19.810Z,-2.60
2018-03-18T18:45:47.942Z,-2.60
2018-03-18T18:48:16.094Z,-2.70
2018-03-18T18:50:44.338Z,-2.60
2018-03-18T18:53:12.479Z,-2.60
2018-03-18T18:55:40.629Z,-2.60
2018-03-18T18:58:08.783Z,-2.60
2018-03-18T19:00:37.704Z,-2.50
2018-03-18T19:03:05.931Z,-2.60
2018-03-18T19:05:35.586Z,-2.50
2018-03-18T19:08:03.739Z,-2.50
2018-03-18T19:10:31.870Z,-2.60
2018-03-18T19:13:00.114Z,-2.60
2018-03-18T19:15:28.371Z,-2.60
2018-03-18T19:17:56.521Z,-2.50
2018-03-18T19:20:25.492Z,-2.50
2018-03-18T19:22:53.634Z,-2.60
2018-03-18T19:25:21.780Z,-2.60
2018-03-18T19:27:49.969Z,-2.70
2018-03-18T19:30:18.074Z,-2.70
2018-03-18T19:32:46.230Z,-2.70
2018-03-18T19:35:14.370Z,-2.60
2018-03-18T19:37:44.326Z,-2.60
2018-03-18T19:40:15.456Z,-2.70
2018-03-18T19:42:46.134Z,-2.70
2018-03-18T19:45:17.218Z,-2.60
2018-03-18T19:47:47.141Z,-2.70
2018-03-18T19:50:19.531Z,-2.60
2018-03-18T19:52:52.380Z,-2.70
2018-03-18T19:55:21.662Z,-2.60
2018-03-18T19:57:51.793Z,-2.70
2018-03-18T20:00:24.521Z,-2.70
2018-03-18T20:02:54.850Z,-2.60
2018-03-18T20:05:24.830Z,-2.70
2018-03-18T20:07:56.333Z,-2.70
2018-03-18T20:10:29.402Z,-2.70
2018-03-18T20:13:03.648Z,-2.70
2018-03-18T20:15:32.723Z,-2.80
2018-03-18T20:18:03.996Z,-2.70
2018-03-18T20:20:37.204Z,-2.80
2018-03-18T20:23:07.107Z,-2.80
2018-03-18T20:25:41.021Z,-2.80
2018-03-18T20:28:11.757Z,-2.80
2018-03-18T20:30:41.791Z,-2.80
2018-03-18T20:33:10.713Z,-2.80
2018-03-18T20:35:40.237Z,-2.80
2018-03-18T20:38:11.044Z,-2.70
2018-03-18T20:40:42.173Z,-2.70
2018-03-18T20:43:16.361Z,-2.70
2018-03-18T20:45:48.239Z,-2.80
2018-03-18T20:48:17.858Z,-2.80
2018-03-18T20:50:46.400Z,-2.80
2018-03-18T20:53:15.650Z,-2.90
2018-03-18T20:55:45.610Z,-2.80
2018-03-18T20:58:19.392Z,-2.80
2018-03-18T21:00:53.016Z,-2.90
2018-03-18T21:03:22.714Z,-2.80
2018-03-18T21:05:52.747Z,-2.80
2018-03-18T21:08:23.714Z,-2.80
2018-03-18T21:10:55.200Z,-2.70
2018-03-18T21:13:24.250Z,-2.70
2018-03-18T21:15:53.157Z,-2.80
2018-03-18T21:18:21.320Z,-2.80
2018-03-18T21:20:49.460Z,-2.80
2018-03-18T21:23:17.650Z,-2.80
2018-03-18T21:25:46.571Z,-2.90
2018-03-18T21:28:14.718Z,-2.90
2018-03-18T21:30:43.618Z,-2.90
2018-03-18T21:33:11.778Z,-2.90
2018-03-18T21:35:40.088Z,-2.90
2018-03-18T21:38:08.221Z,-3.00
2018-03-18T21:40:37.280Z,-2.90
2018-03-18T21:43:05.461Z,-2.90
2018-03-18T21:45:33.615Z,-2.80
2018-03-18T21:48:01.868Z,-2.80
2018-03-18T21:50:30.861Z,-2.80
2018-03-18T21:52:59.147Z,-2.80
2018-03-18T21:55:27.342Z,-2.80
2018-03-18T21:57:55.514Z,-2.80
2018-03-18T22:00:23.676Z,-2.80
2018-03-18T22:02:51.866Z,-2.70
2018-03-18T22:05:20.104Z,-2.70
2018-03-18T22:07:48.228Z,-2.70
2018-03-18T22:10:16.382Z,-2.70
2018-03-18T22:12:45.292Z,-2.80
2018-03-18T22:15:13.470Z,-2.80
2018-03-18T22:17:41.607Z,-2.80
2018-03-18T22:20:09.787Z,-2.80
2018-03-18T22:22:38.694Z,-2.90
2018-03-18T22:25:06.848Z,-2.90
2018-03-18T22:27:35.750Z,-2.90
2018-03-18T22:30:03.899Z,-2.90
2018-03-18T22:32:32.025Z,-3.00
2018-03-18T22:35:00.166Z,-3.00
2018-03-18T22:37:29.068Z,-3.00
2018-03-18T22:39:57.878Z,-3.00
2018-03-18T22:42:26.827Z,-3.00
2018-03-18T22:44:55.732Z,-3.00
2018-03-18T22:47:24.246Z,-3.00
2018-03-18T22:49:52.390Z,-3.10
2018-03-18T22:52:20.546Z,-3.00
2018-03-18T22:54:48.749Z,-2.90
2018-03-18T22:57:17.075Z,-2.90
2018-03-18T22:59:46.322Z,-2.90
2018-03-18T23:02:14.503Z,-2.90
2018-03-18T23:04:42.653Z,-2.90
2018-03-18T23:07:10.909Z,-2.90
2018-03-18T23:09:39.047Z,-2.90
2018-03-18T23:12:07.275Z,-2.90
2018-03-18T23:14:35.924Z,-2.90
2018-03-18T23:17:04.450Z,-2.80
2018-03-18T23:19:32.694Z,-2.90
2018-03-18T23:22:00.882Z,-2.90
2018-03-18T23:24:29.021Z,-2.90
2018-03-18T23:26:57.931Z,-3.00
2018-03-18T23:29:26.057Z,-3.00
2018-03-18T23:31:54.268Z,-3.00
2018-03-18T23:34:22.399Z,-3.00
2018-03-18T23:36:50.622Z,-3.00
2018-03-18T23:39:18.803Z,-3.00
2018-03-18T23:41:46.983Z,-2.90
2018-03-18T23:44:15.126Z,-2.90
2018-03-18T23:46:43.366Z,-2.80
2018-03-18T23:49:11.587Z,-2.90
2018-03-18T23:51:39.726Z,-2.90
2018-03-18T23:54:07.878Z,-3.00
2018-03-18T23:56:37.352Z,-2.90
2018-03-18T23:59:07.278Z,-3.00
